Scout — WDI8661 — position and weather

sailwx.info

Track history (hours):
 
Tides and Currents Weather Stations Pressure Air Temp Water Temp Dewpoint Dewpoint Depression Visibility Wind Speed Wind Dir Waves Ship Positions

Scout

Owner: Harley Marine Services, Inc, Seattle, WA. More information available from US FCC via Universal Licensing System and Coast Guard Vessel Documentation Center.

Last reported at 2018-Jul-16 14:00 UTC. Time now 2018-Jul-16 14:39 UTC.
Position N 29°47' W 095°06'.

Length 23 m; draft 3.3 m.

Type: Towing. MMSI: 367740860.

Date/timePositionNaut miles runAvg speedWind from/ knotsBaromVisibWave heightAir tempDewpointWater temp
2018-Jul-16 14:00N 29°47' W 095°06'0 0.0
2018-Jul-16 13:30N 29°47' W 095°06'0 0.0
2018-Jul-16 13:00N 29°47' W 095°06'0 0.0
2018-Jul-16 12:30N 29°47' W 095°06'0 0.0
2018-Jul-16 12:00N 29°47' W 095°06'0 0.0
2018-Jul-16 11:30N 29°47' W 095°06'0 0.0
2018-Jul-16 11:00N 29°47' W 095°06'0 0.0
2018-Jul-16 09:52N 29°47' W 095°06'0 0.0
2018-Jul-16 09:24N 29°47' W 095°06'0 0.0
2018-Jul-16 08:59N 29°47' W 095°06'0 0.0
2018-Jul-16 08:27N 29°47' W 095°06'0 0.0
2018-Jul-16 08:00N 29°47' W 095°06'0 0.0
2018-Jul-16 07:29N 29°47' W 095°06'0 0.0
2018-Jul-16 06:47N 29°47' W 095°06'0 0.0
2018-Jul-16 06:24N 29°47' W 095°06'0 0.0
2018-Jul-16 05:04N 29°47' W 095°06'0 0.1
2018-Jul-16 05:00N 29°47' W 095°06'0 0.1
2018-Jul-16 04:18N 29°47' W 095°06'0 0.1
2018-Jul-16 03:55N 29°47' W 095°06'  
2018-Jul-13 16:13N 29°44' W 095°01'1 6.4
2018-Jul-13 16:00N 29°42' W 095°01'1 1.2
2018-Jul-13 15:30N 29°43' W 095°01'4 7.7
2018-Jul-13 14:59N 29°46' W 095°04'1 0.1
2018-Jul-12 23:29N 29°46' W 095°05'1 2.5
2018-Jul-12 23:00N 29°45' W 095°06'0 0.1
2018-Jul-12 22:30N 29°45' W 095°06'0 0.0
2018-Jul-12 22:00N 29°45' W 095°06'0 0.0
2018-Jul-12 21:30N 29°45' W 095°06'0 0.0
2018-Jul-12 21:00N 29°45' W 095°06'0 0.0
2018-Jul-12 20:30N 29°45' W 095°06'0 0.0
2018-Jul-12 20:00N 29°45' W 095°06'0 0.0
2018-Jul-12 19:29N 29°45' W 095°06'0 0.0
2018-Jul-12 19:00N 29°45' W 095°06'0 0.0
2018-Jul-12 18:30N 29°45' W 095°06'0 0.0
2018-Jul-12 17:59N 29°45' W 095°06'0 0.0
2018-Jul-12 17:30N 29°45' W 095°06'0 0.0
2018-Jul-12 17:00N 29°45' W 095°06'0 0.0
2018-Jul-12 16:30N 29°45' W 095°06'0 0.0
2018-Jul-12 16:00N 29°45' W 095°06'0 0.0
2018-Jul-12 15:30N 29°45' W 095°06'0 0.0
2018-Jul-12 15:00N 29°45' W 095°06'0 0.0
2018-Jul-12 14:30N 29°45' W 095°06'0 0.0
2018-Jul-12 13:59N 29°45' W 095°06'0 0.0
2018-Jul-12 13:30N 29°45' W 095°06'0 0.0
2018-Jul-12 13:00N 29°45' W 095°06'0 0.0
2018-Jul-12 12:30N 29°45' W 095°06'1 1.2
2018-Jul-12 12:00N 29°46' W 095°06'0 0.0
2018-Jul-12 03:37N 29°46' W 095°06'0 2.6
2018-Jul-12 03:26N 29°45' W 095°06'0 1.1
2018-Jul-12 03:00N 29°45' W 095°06'0 0.0
2018-Jul-12 02:30N 29°45' W 095°06'0 0.0
2018-Jul-12 01:59N 29°45' W 095°06'0 0.0
2018-Jul-12 01:30N 29°45' W 095°06'0 0.0
2018-Jul-12 00:57N 29°45' W 095°06'0 0.0
2018-Jul-12 00:30N 29°45' W 095°06'0 0.0
2018-Jul-12 00:00N 29°45' W 095°06'0 0.0
2018-Jul-11 23:25N 29°45' W 095°06'0 0.0
2018-Jul-11 23:00N 29°45' W 095°06'0 0.0
2018-Jul-11 22:28N 29°45' W 095°06'0 0.0
2018-Jul-11 21:42N 29°45' W 095°06'0 0.0
2018-Jul-11 21:30N 29°45' W 095°06'0 0.0
2018-Jul-11 20:49N 29°45' W 095°06'0 0.0
2018-Jul-11 20:30N 29°45' W 095°06'0 0.0
2018-Jul-11 20:00N 29°45' W 095°06'1 1.3
2018-Jul-11 19:07N 29°46' W 095°05'1 0.2
2018-Jul-11 14:35N 29°47' W 095°06'0 0.0
2018-Jul-11 14:24N 29°47' W 095°06'0 0.0
2018-Jul-11 13:47N 29°47' W 095°06'0 0.0
2018-Jul-11 13:29N 29°47' W 095°06'0 0.0
2018-Jul-11 12:49N 29°47' W 095°06'0 0.0
2018-Jul-11 12:29N 29°47' W 095°06'0 0.0
2018-Jul-11 12:00N 29°47' W 095°06'0 0.0
2018-Jul-11 11:28N 29°47' W 095°06'0 0.0
2018-Jul-11 10:13N 29°47' W 095°06'0 0.0
2018-Jul-11 10:00N 29°47' W 095°06'0 0.0
2018-Jul-11 09:28N 29°47' W 095°06'0 0.0
2018-Jul-11 09:00N 29°47' W 095°06'0 0.0
2018-Jul-11 08:30N 29°47' W 095°06'0 0.0
2018-Jul-11 08:00N 29°47' W 095°06'0 0.0
2018-Jul-11 07:30N 29°47' W 095°06'0 0.0
2018-Jul-11 07:00N 29°47' W 095°06'0 0.0
2018-Jul-11 06:30N 29°47' W 095°06'0 0.0
2018-Jul-11 06:00N 29°47' W 095°06'0 0.0
2018-Jul-11 05:28N 29°47' W 095°06'0 0.0
2018-Jul-11 04:55N 29°47' W 095°06'0 0.0
2018-Jul-11 04:28N 29°47' W 095°06'0 0.0
2018-Jul-11 03:47N 29°47' W 095°06'0 0.0
2018-Jul-11 03:27N 29°47' W 095°06'0 0.0
2018-Jul-11 03:00N 29°47' W 095°06'0 0.0
2018-Jul-11 02:17N 29°47' W 095°06'0 0.0
2018-Jul-10 13:39N 29°47' W 095°06'0 0.0
2018-Jul-10 13:23N 29°47' W 095°06'0 0.0
2018-Jul-10 12:59N 29°47' W 095°06'0 0.0
2018-Jul-10 12:30N 29°47' W 095°06'0 0.0
2018-Jul-10 12:00N 29°47' W 095°06'0 0.0
2018-Jul-10 11:27N 29°47' W 095°06'0 0.0
2018-Jul-10 10:57N 29°47' W 095°06'0 0.0
2018-Jul-10 10:27N 29°47' W 095°06'0 0.0
2018-Jul-10 10:00N 29°47' W 095°06'0 0.0
2018-Jul-10 09:29N 29°47' W 095°06'0 0.0
2018-Jul-10 08:59N 29°47' W 095°06'0 0.0
2018-Jul-10 08:30N 29°47' W 095°06'0 0.0
2018-Jul-10 08:00N 29°47' W 095°06'0 0.0
2018-Jul-10 07:25N 29°47' W 095°06'0 0.0
2018-Jul-10 06:58N 29°47' W 095°06'0 0.0
2018-Jul-10 03:57N 29°47' W 095°06'0 0.0
2018-Jul-10 03:23N 29°47' W 095°06'0 0.0
2018-Jul-10 02:19N 29°47' W 095°06'1 1.5
2018-Jul-10 01:39N 29°46' W 095°05'1 7.5
2018-Jul-10 01:30N 29°46' W 095°04'4 6.9
2018-Jul-10 00:56N 29°42' W 095°01'3 6.9
2018-Jul-10 00:30N 29°41' W 094°59'4 7.7
2018-Jul-09 23:56N 29°36' W 094°57'4 8.2
2018-Jul-09 23:30N 29°33' W 094°55'16 7.2
2018-Jul-09 21:17N 29°19' W 094°48'0 0.0
2018-Jul-09 15:07N 29°19' W 094°48'0 0.1
2018-Jul-09 14:59N 29°19' W 094°48'0 0.0
2018-Jul-09 14:28N 29°19' W 094°48'0 0.0
2018-Jul-09 13:55N 29°19' W 094°48'0 0.0
2018-Jul-09 13:29N 29°19' W 094°48'0 0.1
2018-Jul-09 12:55N 29°19' W 094°48'0 0.0
2018-Jul-09 05:46N 29°19' W 094°48'0 0.6
2018-Jul-09 05:28N 29°19' W 094°48'0 0.8
2018-Jul-09 04:58N 29°19' W 094°47'3 7.0
2018-Jul-09 04:29N 29°22' W 094°48'5 8.6
2018-Jul-09 03:53N 29°27' W 094°51'3 8.9
2018-Jul-09 03:30N 29°30' W 094°52'4 8.8
2018-Jul-09 03:00N 29°34' W 094°55'4 8.6
2018-Jul-09 02:30N 29°37' W 094°58'5 9.3
2018-Jul-09 02:00N 29°42' W 094°60'4 8.1
2018-Jul-09 01:30N 29°44' W 095°03'4 3.3
2018-Jul-09 00:26N 29°47' W 095°06'0 0.0
2018-Jul-08 23:52N 29°47' W 095°06'0 0.0
2018-Jul-08 23:25N 29°47' W 095°06'1 0.0
2018-Jul-07 00:59N 29°46' W 095°06'0 0.6
2018-Jul-07 00:30N 29°46' W 095°05'1 0.1
2018-Jul-06 15:37N 29°47' W 095°06'0 0.1
2018-Jul-06 15:29N 29°47' W 095°06'0 0.0
2018-Jul-06 14:59N 29°47' W 095°06'0 0.0
2018-Jul-06 14:26N 29°47' W 095°06'  
Track history (hours):
 
Tides and Currents Weather Stations Pressure Air Temp Water Temp Dewpoint Dewpoint Depression Visibility Wind Speed Wind Dir Waves Ship Positions

Scout

Owner: Harley Marine Services, Inc, Seattle, WA. More information available from US FCC via Universal Licensing System and Coast Guard Vessel Documentation Center.

Last reported at 2018-Jul-16 14:00 UTC. Time now 2018-Jul-16 14:39 UTC.
Position N 29°47' W 095°06'.

Length 23 m; draft 3.3 m.

Type: Towing. MMSI: 367740860.

Date/timePositionNaut miles runAvg speedWind from/ knotsBaromVisibWave heightAir tempDewpointWater temp
2018-Jul-16 14:00N 29°47' W 095°06'0 0.0
2018-Jul-16 13:30N 29°47' W 095°06'0 0.0
2018-Jul-16 13:00N 29°47' W 095°06'0 0.0
2018-Jul-16 12:30N 29°47' W 095°06'0 0.0
2018-Jul-16 12:00N 29°47' W 095°06'0 0.0
2018-Jul-16 11:30N 29°47' W 095°06'0 0.0
2018-Jul-16 11:00N 29°47' W 095°06'0 0.0
2018-Jul-16 09:52N 29°47' W 095°06'0 0.0
2018-Jul-16 09:24N 29°47' W 095°06'0 0.0
2018-Jul-16 08:59N 29°47' W 095°06'0 0.0
2018-Jul-16 08:27N 29°47' W 095°06'0 0.0
2018-Jul-16 08:00N 29°47' W 095°06'0 0.0
2018-Jul-16 07:29N 29°47' W 095°06'0 0.0
2018-Jul-16 06:47N 29°47' W 095°06'0 0.0
2018-Jul-16 06:24N 29°47' W 095°06'0 0.0
2018-Jul-16 05:04N 29°47' W 095°06'0 0.1
2018-Jul-16 05:00N 29°47' W 095°06'0 0.1
2018-Jul-16 04:18N 29°47' W 095°06'0 0.1
2018-Jul-16 03:55N 29°47' W 095°06'  
2018-Jul-13 16:13N 29°44' W 095°01'1 6.4
2018-Jul-13 16:00N 29°42' W 095°01'1 1.2
2018-Jul-13 15:30N 29°43' W 095°01'4 7.7
2018-Jul-13 14:59N 29°46' W 095°04'1 0.1
2018-Jul-12 23:29N 29°46' W 095°05'1 2.5
2018-Jul-12 23:00N 29°45' W 095°06'0 0.1
2018-Jul-12 22:30N 29°45' W 095°06'0 0.0
2018-Jul-12 22:00N 29°45' W 095°06'0 0.0
2018-Jul-12 21:30N 29°45' W 095°06'0 0.0
2018-Jul-12 21:00N 29°45' W 095°06'0 0.0
2018-Jul-12 20:30N 29°45' W 095°06'0 0.0
2018-Jul-12 20:00N 29°45' W 095°06'0 0.0
2018-Jul-12 19:29N 29°45' W 095°06'0 0.0
2018-Jul-12 19:00N 29°45' W 095°06'0 0.0
2018-Jul-12 18:30N 29°45' W 095°06'0 0.0
2018-Jul-12 17:59N 29°45' W 095°06'0 0.0
2018-Jul-12 17:30N 29°45' W 095°06'0 0.0
2018-Jul-12 17:00N 29°45' W 095°06'0 0.0
2018-Jul-12 16:30N 29°45' W 095°06'0 0.0
2018-Jul-12 16:00N 29°45' W 095°06'0 0.0
2018-Jul-12 15:30N 29°45' W 095°06'0 0.0
2018-Jul-12 15:00N 29°45' W 095°06'0 0.0
2018-Jul-12 14:30N 29°45' W 095°06'0 0.0
2018-Jul-12 13:59N 29°45' W 095°06'0 0.0
2018-Jul-12 13:30N 29°45' W 095°06'0 0.0
2018-Jul-12 13:00N 29°45' W 095°06'0 0.0
2018-Jul-12 12:30N 29°45' W 095°06'1 1.2
2018-Jul-12 12:00N 29°46' W 095°06'0 0.0
2018-Jul-12 03:37N 29°46' W 095°06'0 2.6
2018-Jul-12 03:26N 29°45' W 095°06'0 1.1
2018-Jul-12 03:00N 29°45' W 095°06'0 0.0
2018-Jul-12 02:30N 29°45' W 095°06'0 0.0
2018-Jul-12 01:59N 29°45' W 095°06'0 0.0
2018-Jul-12 01:30N 29°45' W 095°06'0 0.0
2018-Jul-12 00:57N 29°45' W 095°06'0 0.0
2018-Jul-12 00:30N 29°45' W 095°06'0 0.0
2018-Jul-12 00:00N 29°45' W 095°06'0 0.0
2018-Jul-11 23:25N 29°45' W 095°06'0 0.0
2018-Jul-11 23:00N 29°45' W 095°06'0 0.0
2018-Jul-11 22:28N 29°45' W 095°06'0 0.0
2018-Jul-11 21:42N 29°45' W 095°06'0 0.0
2018-Jul-11 21:30N 29°45' W 095°06'0 0.0
2018-Jul-11 20:49N 29°45' W 095°06'0 0.0
2018-Jul-11 20:30N 29°45' W 095°06'0 0.0
2018-Jul-11 20:00N 29°45' W 095°06'1 1.3
2018-Jul-11 19:07N 29°46' W 095°05'1 0.2
2018-Jul-11 14:35N 29°47' W 095°06'0 0.0
2018-Jul-11 14:24N 29°47' W 095°06'0 0.0
2018-Jul-11 13:47N 29°47' W 095°06'0 0.0
2018-Jul-11 13:29N 29°47' W 095°06'0 0.0
2018-Jul-11 12:49N 29°47' W 095°06'0 0.0
2018-Jul-11 12:29N 29°47' W 095°06'0 0.0
2018-Jul-11 12:00N 29°47' W 095°06'0 0.0
2018-Jul-11 11:28N 29°47' W 095°06'0 0.0
2018-Jul-11 10:13N 29°47' W 095°06'0 0.0
2018-Jul-11 10:00N 29°47' W 095°06'0 0.0
2018-Jul-11 09:28N 29°47' W 095°06'0 0.0
2018-Jul-11 09:00N 29°47' W 095°06'0 0.0
2018-Jul-11 08:30N 29°47' W 095°06'0 0.0
2018-Jul-11 08:00N 29°47' W 095°06'0 0.0
2018-Jul-11 07:30N 29°47' W 095°06'0 0.0
2018-Jul-11 07:00N 29°47' W 095°06'0 0.0
2018-Jul-11 06:30N 29°47' W 095°06'0 0.0
2018-Jul-11 06:00N 29°47' W 095°06'0 0.0
2018-Jul-11 05:28N 29°47' W 095°06'0 0.0
2018-Jul-11 04:55N 29°47' W 095°06'0 0.0
2018-Jul-11 04:28N 29°47' W 095°06'0 0.0
2018-Jul-11 03:47N 29°47' W 095°06'0 0.0
2018-Jul-11 03:27N 29°47' W 095°06'0 0.0
2018-Jul-11 03:00N 29°47' W 095°06'0 0.0
2018-Jul-11 02:17N 29°47' W 095°06'0 0.0
2018-Jul-10 13:39N 29°47' W 095°06'0 0.0
2018-Jul-10 13:23N 29°47' W 095°06'0 0.0
2018-Jul-10 12:59N 29°47' W 095°06'0 0.0
2018-Jul-10 12:30N 29°47' W 095°06'0 0.0
2018-Jul-10 12:00N 29°47' W 095°06'0 0.0
2018-Jul-10 11:27N 29°47' W 095°06'0 0.0
2018-Jul-10 10:57N 29°47' W 095°06'0 0.0
2018-Jul-10 10:27N 29°47' W 095°06'0 0.0
2018-Jul-10 10:00N 29°47' W 095°06'0 0.0
2018-Jul-10 09:29N 29°47' W 095°06'0 0.0
2018-Jul-10 08:59N 29°47' W 095°06'0 0.0
2018-Jul-10 08:30N 29°47' W 095°06'0 0.0
2018-Jul-10 08:00N 29°47' W 095°06'0 0.0
2018-Jul-10 07:25N 29°47' W 095°06'0 0.0
2018-Jul-10 06:58N 29°47' W 095°06'0 0.0
2018-Jul-10 03:57N 29°47' W 095°06'0 0.0
2018-Jul-10 03:23N 29°47' W 095°06'0 0.0
2018-Jul-10 02:19N 29°47' W 095°06'1 1.5
2018-Jul-10 01:39N 29°46' W 095°05'1 7.5
2018-Jul-10 01:30N 29°46' W 095°04'4 6.9
2018-Jul-10 00:56N 29°42' W 095°01'3 6.9
2018-Jul-10 00:30N 29°41' W 094°59'4 7.7
2018-Jul-09 23:56N 29°36' W 094°57'4 8.2
2018-Jul-09 23:30N 29°33' W 094°55'16 7.2
2018-Jul-09 21:17N 29°19' W 094°48'0 0.0
2018-Jul-09 15:07N 29°19' W 094°48'0 0.1
2018-Jul-09 14:59N 29°19' W 094°48'0 0.0
2018-Jul-09 14:28N 29°19' W 094°48'0 0.0
2018-Jul-09 13:55N 29°19' W 094°48'0 0.0
2018-Jul-09 13:29N 29°19' W 094°48'0 0.1
2018-Jul-09 12:55N 29°19' W 094°48'0 0.0
2018-Jul-09 05:46N 29°19' W 094°48'0 0.6
2018-Jul-09 05:28N 29°19' W 094°48'0 0.8
2018-Jul-09 04:58N 29°19' W 094°47'3 7.0
2018-Jul-09 04:29N 29°22' W 094°48'5 8.6
2018-Jul-09 03:53N 29°27' W 094°51'3 8.9
2018-Jul-09 03:30N 29°30' W 094°52'4 8.8
2018-Jul-09 03:00N 29°34' W 094°55'4 8.6
2018-Jul-09 02:30N 29°37' W 094°58'5 9.3
2018-Jul-09 02:00N 29°42' W 094°60'4 8.1
2018-Jul-09 01:30N 29°44' W 095°03'4 3.3
2018-Jul-09 00:26N 29°47' W 095°06'0 0.0
2018-Jul-08 23:52N 29°47' W 095°06'0 0.0
2018-Jul-08 23:25N 29°47' W 095°06'1 0.0
2018-Jul-07 00:59N 29°46' W 095°06'0 0.6
2018-Jul-07 00:30N 29°46' W 095°05'1 0.1
2018-Jul-06 15:37N 29°47' W 095°06'0 0.1
2018-Jul-06 15:29N 29°47' W 095°06'0 0.0
2018-Jul-06 14:59N 29°47' W 095°06'0 0.0
2018-Jul-06 14:26N 29°47' W 095°06'  

Dump ship's entire track history